Terminal Aerodrome Forecast
Issued by NWS Newport/Morehead City, NC

Home | Current Version | Previous Version | Graphics & Text | Print | Product List | Glossary On
Versions: 1 2 3 4 5 6 7 8 9 10 11 12 13 14
000
FTUS42 KMHX 251740
TAFEWN
TAF
KEWN 251740Z 2518/2618 23006KT P6SM VCSH SCT030 OVC040
     FM252100 19010KT 5SM -RA BR SCT007 OVC020
     FM260000 19005KT 4SM -RA BR BKN007 OVC015
     FM260500 VRB03KT 3SM BR VCSH OVC004
     FM261600 36006KT P6SM VCSH OVC015=

USA.gov is the U.S. government's official web portal to all federal, state and local government web resources and services.